ムルマンスク の空港の天気 - METARとTAF

ムルマンスク空港 ( ULMM / MMK ) - ロシア ムルマンスク
飛行場実況気象(Metar)
観測時間08/22 19:30 MSK (08/22 16:30 UTC)
風向・風速西北西 1m/s
視程10km以上
天気現象弱いしゅう雨
全天の8割程度の雲 雲底高度 640m
気温12℃
湿度88%
気圧1014hPa
METARULMM 221630Z 30001MPS 9999 -SHRA BKN021CB 12/10 Q1014 R31/120065 NOSIG RMK QFE753
過去の天気等 Google飛行場航空写真 Wunderground天気予報

過去48時間のMETAR

飛行場予報(TAF)
発表時間: 8/22 16:58 MSK (8/22 13:58 UTC)
予報対象時間: 22日18時 MSK ~ 23日18時 MSK
風向・風速西 3m/s
視程10km以上
全天の4割程度の雲 雲底高度 460m
22日18時 MSK ~ 22日24時 MSK に一時的に
風向・風速北西 3m/s
視程5000m
天気現象弱い雷雨
全天の8割程度の積乱雲 雲底高度 460m
23日0時 MSK ~ 23日8時 MSK に一時的に
風向・風速不定 1m/s
視程500m
天気現象
全天を覆う雲 鉛直視程 60m
23日8時 MSK ~ 23日9時 MSK に徐々に
風向・風速北北東 3m/s 瞬間風速 8m/s
23日9時 MSK ~ 23日18時 MSK に一時的に
風向・風速東北東 3m/s 瞬間風速 8m/s
天気現象弱いしゅう雨
全天の4割程度の雲 雲底高度 120m
全天の8割程度の積乱雲 雲底高度 460m
TAF ULMM 221358Z 2215/2315 27003MPS 9999 SCT015
TEMPO 2215/2221 32003MPS 5000 -TSRA BKN015CB
TEMPO 2221/2305 VRB01MPS 0500 FG VV002
BECMG 2305/2306 03003G08MPS
TEMPO 2306/2315 06003G08MPS -SHRA SCT004 BKN015CB